createdAt,value
2022-08-10T00:08:32.627Z,1.30
2022-08-10T00:18:36.402Z,1.40
2022-08-10T00:28:39.656Z,1.25
2022-08-10T00:38:42.643Z,1.70
2022-08-10T00:48:44.981Z,1.65
2022-08-10T00:58:55.785Z,1.55
2022-08-10T01:08:57.853Z,1.43
2022-08-10T01:19:12.739Z,1.70
2022-08-10T01:29:46.938Z,1.50
2022-08-10T01:39:56.558Z,1.50
2022-08-10T01:50:03.598Z,1.50
2022-08-10T02:00:07.407Z,1.30
2022-08-10T02:10:13.166Z,1.47
2022-08-10T02:20:24.313Z,1.10
2022-08-10T02:30:29.494Z,1.33
2022-08-10T02:45:01.161Z,1.67
2022-08-10T02:51:05.666Z,1.70
2022-08-10T03:01:17.729Z,1.70
2022-08-10T03:12:35.733Z,1.40
2022-08-10T03:21:51.729Z,1.37
2022-08-10T03:31:55.733Z,1.60
2022-08-10T03:42:02.080Z,1.30
2022-08-10T03:52:06.830Z,1.60
2022-08-10T04:02:46.907Z,1.50
2022-08-10T04:12:32.150Z,1.43
2022-08-10T04:22:36.993Z,1.57
2022-08-10T04:32:41.651Z,1.60
2022-08-10T04:42:45.235Z,1.30
2022-08-10T04:52:47.505Z,1.50
2022-08-10T05:02:50.485Z,2.00
2022-08-10T05:12:52.907Z,1.73
2022-08-10T05:22:55.486Z,1.67
2022-08-10T05:33:01.707Z,1.87
2022-08-10T05:43:06.753Z,1.67
2022-08-10T05:54:01.257Z,1.70
2022-08-10T06:03:37.001Z,1.70
2022-08-10T06:14:13.440Z,1.60
2022-08-10T06:24:25.592Z,1.45
2022-08-10T06:45:22.615Z,1.50
2022-08-10T06:55:40.128Z,1.80
2022-08-10T07:05:56.667Z,1.92
2022-08-10T07:16:02.593Z,1.85
2022-08-10T07:26:07.727Z,1.73
2022-08-10T07:36:13.949Z,1.70
2022-08-10T07:46:25.673Z,1.58
2022-08-10T07:56:48.493Z,2.00
2022-08-10T08:06:57.174Z,1.48
2022-08-10T08:17:04.546Z,1.60
2022-08-10T08:27:22.684Z,1.70
2022-08-10T08:38:32.361Z,2.05
2022-08-10T08:48:26.016Z,1.70
2022-08-10T08:58:51.752Z,1.80
2022-08-10T09:09:33.891Z,2.00
2022-08-10T09:19:46.279Z,1.92
2022-08-10T09:41:00.608Z,1.40
2022-08-10T09:51:44.214Z,1.80
2022-08-10T10:02:02.611Z,1.65
2022-08-10T10:12:28.680Z,1.48
2022-08-10T10:22:43.686Z,1.58
2022-08-10T10:32:59.667Z,1.50
2022-08-10T10:43:40.113Z,1.45
2022-08-10T10:53:55.289Z,1.40
2022-08-10T11:04:07.307Z,1.35
2022-08-10T11:14:39.716Z,1.05
2022-08-10T11:25:16.757Z,1.17
2022-08-10T11:35:35.189Z,1.05
2022-08-10T11:45:52.154Z,1.23
2022-08-10T11:56:13.561Z,0.93
2022-08-10T12:06:53.669Z,1.20
2022-08-10T12:17:18.681Z,1.00
2022-08-10T12:27:42.937Z,1.23
2022-08-10T12:38:12.463Z,1.00
2022-08-10T12:48:58.568Z,1.17
2022-08-10T12:59:14.943Z,0.98
2022-08-10T13:09:27.984Z,1.35
2022-08-10T13:19:53.418Z,0.95
2022-08-10T13:30:10.335Z,1.17
2022-08-10T13:40:23.981Z,1.02
2022-08-10T13:50:35.289Z,1.02
2022-08-10T14:00:46.296Z,0.98
2022-08-10T14:11:08.907Z,0.93
2022-08-10T14:21:18.019Z,1.10
2022-08-10T14:31:26.910Z,1.25
2022-08-10T14:42:03.318Z,0.80
2022-08-10T14:52:05.751Z,0.88
2022-08-10T15:02:40.937Z,1.15
2022-08-10T15:12:41.735Z,0.90
2022-08-10T15:23:33.028Z,0.93
2022-08-10T15:34:05.366Z,0.65
2022-08-10T15:44:10.625Z,0.75
2022-08-10T15:54:17.526Z,0.95
2022-08-10T16:04:49.368Z,0.90
2022-08-10T16:14:54.923Z,0.95
2022-08-10T16:25:00.914Z,1.00
2022-08-10T16:35:08.930Z,0.70
2022-08-10T16:45:25.497Z,1.10
2022-08-10T16:55:49.936Z,1.00
2022-08-10T17:06:03.350Z,0.90
2022-08-10T17:16:21.111Z,1.07
2022-08-10T17:26:37.506Z,0.68
2022-08-10T17:36:43.303Z,0.70
2022-08-10T17:46:47.814Z,0.70
2022-08-10T17:56:57.174Z,1.20
2022-08-10T18:07:02.241Z,0.73
2022-08-10T18:17:11.851Z,0.77
2022-08-10T18:27:15.560Z,0.80
2022-08-10T18:37:23.287Z,0.80
2022-08-10T18:47:34.842Z,1.02
2022-08-10T18:58:02.230Z,0.83
2022-08-10T19:08:49.683Z,0.95
2022-08-10T19:19:22.476Z,0.60
2022-08-10T19:30:11.936Z,0.90
2022-08-10T19:40:43.514Z,0.93
2022-08-10T19:51:18.967Z,1.08
2022-08-10T20:01:21.389Z,0.88
2022-08-10T20:11:42.535Z,0.90
2022-08-10T20:22:00.349Z,0.95
2022-08-10T20:32:21.217Z,0.80
2022-08-10T20:42:35.553Z,1.20
2022-08-10T20:52:39.633Z,0.98
2022-08-10T21:03:20.697Z,0.70
2022-08-10T21:13:35.668Z,0.73
2022-08-10T21:23:46.926Z,0.90
2022-08-10T21:34:01.373Z,1.00
2022-08-10T21:44:43.368Z,1.08
2022-08-10T21:55:25.573Z,1.10
2022-08-10T22:06:13.116Z,0.98
2022-08-10T22:16:48.506Z,0.80
2022-08-10T22:27:47.322Z,1.00
2022-08-10T22:38:39.070Z,0.88
2022-08-10T22:49:00.466Z,0.50
2022-08-10T22:59:03.281Z,0.70
2022-08-10T23:09:08.979Z,1.05
2022-08-10T23:19:41.997Z,0.70
2022-08-10T23:30:09.397Z,0.75
2022-08-10T23:40:16.010Z,0.60
2022-08-10T23:50:19.884Z,0.82
